sensor_id;sensor_type;location;lat;lon;timestamp;P1;durP1;ratioP1;P2;durP2;ratioP2
27863;SDS011;15980;51.092;13.916;2023-02-28T00:06:29;10.02;;;4.53;;
27863;SDS011;15980;51.092;13.916;2023-02-28T00:16:30;11.60;;;4.03;;
27863;SDS011;15980;51.092;13.916;2023-02-28T00:26:30;9.05;;;4.28;;
27863;SDS011;15980;51.092;13.916;2023-02-28T00:36:30;14.18;;;3.97;;
27863;SDS011;15980;51.092;13.916;2023-02-28T00:46:30;10.73;;;4.00;;
27863;SDS011;15980;51.092;13.916;2023-02-28T00:56:31;10.60;;;4.63;;
27863;SDS011;15980;51.092;13.916;2023-02-28T01:06:31;8.05;;;4.22;;
27863;SDS011;15980;51.092;13.916;2023-02-28T01:16:32;11.45;;;4.82;;
27863;SDS011;15980;51.092;13.916;2023-02-28T01:26:32;10.43;;;4.80;;
27863;SDS011;15980;51.092;13.916;2023-02-28T01:36:32;8.80;;;4.35;;
27863;SDS011;15980;51.092;13.916;2023-02-28T01:46:34;12.45;;;5.57;;
27863;SDS011;15980;51.092;13.916;2023-02-28T01:56:35;10.23;;;4.85;;
27863;SDS011;15980;51.092;13.916;2023-02-28T02:36:48;12.63;;;5.93;;
27863;SDS011;15980;51.092;13.916;2023-02-28T02:46:55;13.10;;;5.95;;
27863;SDS011;15980;51.092;13.916;2023-02-28T02:57:02;13.63;;;5.85;;
27863;SDS011;15980;51.092;13.916;2023-02-28T03:07:05;18.40;;;6.97;;
27863;SDS011;15980;51.092;13.916;2023-02-28T03:27:40;14.95;;;6.47;;
27863;SDS011;15980;51.092;13.916;2023-02-28T03:38:22;17.87;;;6.57;;
27863;SDS011;15980;51.092;13.916;2023-02-28T03:48:25;19.33;;;7.10;;
27863;SDS011;15980;51.092;13.916;2023-02-28T03:58:36;12.40;;;6.38;;
27863;SDS011;15980;51.092;13.916;2023-02-28T04:08:41;13.88;;;6.47;;
27863;SDS011;15980;51.092;13.916;2023-02-28T04:18:42;8.47;;;4.60;;
27863;SDS011;15980;51.092;13.916;2023-02-28T04:28:42;13.13;;;6.43;;
27863;SDS011;15980;51.092;13.916;2023-02-28T04:38:43;17.52;;;7.72;;
27863;SDS011;15980;51.092;13.916;2023-02-28T04:48:44;20.30;;;7.32;;
27863;SDS011;15980;51.092;13.916;2023-02-28T04:58:44;19.65;;;8.20;;
27863;SDS011;15980;51.092;13.916;2023-02-28T05:08:45;21.10;;;9.02;;
27863;SDS011;15980;51.092;13.916;2023-02-28T05:18:45;24.00;;;9.93;;
27863;SDS011;15980;51.092;13.916;2023-02-28T05:28:46;18.30;;;7.97;;
27863;SDS011;15980;51.092;13.916;2023-02-28T05:38:49;20.05;;;8.25;;
27863;SDS011;15980;51.092;13.916;2023-02-28T05:48:50;18.00;;;7.47;;
27863;SDS011;15980;51.092;13.916;2023-02-28T05:58:51;24.75;;;8.30;;
27863;SDS011;15980;51.092;13.916;2023-02-28T06:08:51;16.35;;;8.48;;
27863;SDS011;15980;51.092;13.916;2023-02-28T06:18:51;22.38;;;9.05;;
27863;SDS011;15980;51.092;13.916;2023-02-28T06:28:52;19.30;;;8.57;;
27863;SDS011;15980;51.092;13.916;2023-02-28T06:38:52;22.63;;;10.80;;
27863;SDS011;15980;51.092;13.916;2023-02-28T06:48:53;21.25;;;10.15;;
27863;SDS011;15980;51.092;13.916;2023-02-28T06:58:53;25.95;;;10.73;;
27863;SDS011;15980;51.092;13.916;2023-02-28T07:08:54;29.83;;;11.70;;
27863;SDS011;15980;51.092;13.916;2023-02-28T07:18:54;18.23;;;8.20;;
27863;SDS011;15980;51.092;13.916;2023-02-28T07:28:55;25.08;;;11.10;;
27863;SDS011;15980;51.092;13.916;2023-02-28T07:38:55;26.25;;;11.20;;
27863;SDS011;15980;51.092;13.916;2023-02-28T07:48:56;24.10;;;9.90;;
27863;SDS011;15980;51.092;13.916;2023-02-28T07:58:57;27.25;;;11.15;;
27863;SDS011;15980;51.092;13.916;2023-02-28T08:08:57;29.70;;;11.68;;
27863;SDS011;15980;51.092;13.916;2023-02-28T08:18:57;20.05;;;9.05;;
27863;SDS011;15980;51.092;13.916;2023-02-28T08:28:58;24.63;;;11.25;;
27863;SDS011;15980;51.092;13.916;2023-02-28T08:38:58;22.40;;;8.57;;
27863;SDS011;15980;51.092;13.916;2023-02-28T08:48:58;18.65;;;7.97;;
27863;SDS011;15980;51.092;13.916;2023-02-28T08:58:58;25.27;;;10.10;;
27863;SDS011;15980;51.092;13.916;2023-02-28T09:08:59;18.25;;;8.50;;
27863;SDS011;15980;51.092;13.916;2023-02-28T09:18:59;19.65;;;8.82;;
27863;SDS011;15980;51.092;13.916;2023-02-28T09:29:01;19.10;;;9.43;;
27863;SDS011;15980;51.092;13.916;2023-02-28T09:39:01;24.63;;;8.77;;
27863;SDS011;15980;51.092;13.916;2023-02-28T09:49:02;21.35;;;8.18;;
27863;SDS011;15980;51.092;13.916;2023-02-28T10:09:17;19.65;;;8.68;;
27863;SDS011;15980;51.092;13.916;2023-02-28T10:29:33;17.30;;;8.45;;
27863;SDS011;15980;51.092;13.916;2023-02-28T10:49:34;17.58;;;8.75;;
27863;SDS011;15980;51.092;13.916;2023-02-28T10:59:34;17.90;;;8.63;;
27863;SDS011;15980;51.092;13.916;2023-02-28T11:09:36;21.95;;;8.57;;
27863;SDS011;15980;51.092;13.916;2023-02-28T11:19:40;17.52;;;8.98;;
27863;SDS011;15980;51.092;13.916;2023-02-28T11:29:46;21.60;;;9.52;;
27863;SDS011;15980;51.092;13.916;2023-02-28T11:39:47;21.60;;;9.30;;
27863;SDS011;15980;51.092;13.916;2023-02-28T11:50:03;18.83;;;9.65;;
27863;SDS011;15980;51.092;13.916;2023-02-28T12:10:44;26.02;;;9.95;;
27863;SDS011;15980;51.092;13.916;2023-02-28T12:31:24;27.63;;;10.60;;
27863;SDS011;15980;51.092;13.916;2023-02-28T12:51:34;23.90;;;10.75;;
27863;SDS011;15980;51.092;13.916;2023-02-28T13:11:43;33.65;;;13.57;;
27863;SDS011;15980;51.092;13.916;2023-02-28T13:21:45;22.77;;;10.50;;
27863;SDS011;15980;51.092;13.916;2023-02-28T13:52:34;29.90;;;12.93;;
27863;SDS011;15980;51.092;13.916;2023-02-28T14:44:22;26.92;;;12.18;;
27863;SDS011;15980;51.092;13.916;2023-02-28T14:54:24;29.63;;;12.98;;
27863;SDS011;15980;51.092;13.916;2023-02-28T15:04:27;27.85;;;12.98;;
27863;SDS011;15980;51.092;13.916;2023-02-28T15:14:27;81.38;;;31.15;;
27863;SDS011;15980;51.092;13.916;2023-02-28T15:24:38;56.40;;;21.70;;
27863;SDS011;15980;51.092;13.916;2023-02-28T15:34:46;35.47;;;14.82;;
27863;SDS011;15980;51.092;13.916;2023-02-28T15:44:47;39.80;;;15.05;;
27863;SDS011;15980;51.092;13.916;2023-02-28T15:54:47;39.90;;;16.15;;
27863;SDS011;15980;51.092;13.916;2023-02-28T16:04:55;36.08;;;13.52;;
27863;SDS011;15980;51.092;13.916;2023-02-28T16:14:56;30.88;;;12.68;;
27863;SDS011;15980;51.092;13.916;2023-02-28T16:24:58;50.03;;;13.95;;
27863;SDS011;15980;51.092;13.916;2023-02-28T16:34:59;29.88;;;13.30;;
27863;SDS011;15980;51.092;13.916;2023-02-28T16:44:59;50.92;;;22.77;;
27863;SDS011;15980;51.092;13.916;2023-02-28T16:54:59;28.55;;;12.75;;
27863;SDS011;15980;51.092;13.916;2023-02-28T17:05:00;33.90;;;12.80;;
27863;SDS011;15980;51.092;13.916;2023-02-28T17:15:00;36.50;;;13.75;;
27863;SDS011;15980;51.092;13.916;2023-02-28T17:25:01;40.00;;;14.55;;
27863;SDS011;15980;51.092;13.916;2023-02-28T17:35:01;31.13;;;12.85;;
27863;SDS011;15980;51.092;13.916;2023-02-28T17:45:01;40.45;;;13.25;;
27863;SDS011;15980;51.092;13.916;2023-02-28T17:55:02;37.05;;;12.95;;
27863;SDS011;15980;51.092;13.916;2023-02-28T18:05:03;47.10;;;14.03;;
27863;SDS011;15980;51.092;13.916;2023-02-28T18:15:04;37.13;;;12.90;;
27863;SDS011;15980;51.092;13.916;2023-02-28T18:25:06;37.47;;;13.05;;
27863;SDS011;15980;51.092;13.916;2023-02-28T18:35:07;35.75;;;13.25;;
27863;SDS011;15980;51.092;13.916;2023-02-28T18:45:08;37.03;;;14.82;;
27863;SDS011;15980;51.092;13.916;2023-02-28T18:55:09;40.33;;;15.33;;
27863;SDS011;15980;51.092;13.916;2023-02-28T19:05:09;41.70;;;16.50;;
27863;SDS011;15980;51.092;13.916;2023-02-28T19:15:10;89.00;;;29.27;;
27863;SDS011;15980;51.092;13.916;2023-02-28T19:25:11;85.07;;;27.43;;
27863;SDS011;15980;51.092;13.916;2023-02-28T19:35:11;72.30;;;25.95;;
27863;SDS011;15980;51.092;13.916;2023-02-28T19:45:11;79.25;;;30.50;;
27863;SDS011;15980;51.092;13.916;2023-02-28T19:55:11;70.63;;;28.92;;
27863;SDS011;15980;51.092;13.916;2023-02-28T20:05:12;67.15;;;23.65;;
27863;SDS011;15980;51.092;13.916;2023-02-28T20:15:12;66.25;;;25.70;;
27863;SDS011;15980;51.092;13.916;2023-02-28T20:25:12;82.03;;;28.75;;
27863;SDS011;15980;51.092;13.916;2023-02-28T20:35:13;63.55;;;23.75;;
27863;SDS011;15980;51.092;13.916;2023-02-28T20:45:13;56.20;;;22.77;;
27863;SDS011;15980;51.092;13.916;2023-02-28T20:55:13;56.53;;;22.05;;
27863;SDS011;15980;51.092;13.916;2023-02-28T21:05:14;56.90;;;20.85;;
27863;SDS011;15980;51.092;13.916;2023-02-28T21:15:14;53.92;;;21.88;;
27863;SDS011;15980;51.092;13.916;2023-02-28T21:25:14;54.42;;;22.00;;
27863;SDS011;15980;51.092;13.916;2023-02-28T21:35:15;48.47;;;19.35;;
27863;SDS011;15980;51.092;13.916;2023-02-28T21:45:15;47.33;;;19.50;;
27863;SDS011;15980;51.092;13.916;2023-02-28T21:55:15;49.00;;;20.30;;
27863;SDS011;15980;51.092;13.916;2023-02-28T22:05:16;49.05;;;19.00;;
27863;SDS011;15980;51.092;13.916;2023-02-28T22:15:16;42.83;;;17.42;;
27863;SDS011;15980;51.092;13.916;2023-02-28T22:25:16;52.33;;;17.88;;
27863;SDS011;15980;51.092;13.916;2023-02-28T22:35:17;43.22;;;18.08;;
27863;SDS011;15980;51.092;13.916;2023-02-28T22:45:17;43.50;;;16.63;;
27863;SDS011;15980;51.092;13.916;2023-02-28T22:55:17;39.33;;;14.75;;
27863;SDS011;15980;51.092;13.916;2023-02-28T23:05:18;37.50;;;15.13;;
27863;SDS011;15980;51.092;13.916;2023-02-28T23:15:19;39.85;;;15.43;;
27863;SDS011;15980;51.092;13.916;2023-02-28T23:25:20;35.97;;;14.63;;
27863;SDS011;15980;51.092;13.916;2023-02-28T23:35:20;32.97;;;14.50;;
27863;SDS011;15980;51.092;13.916;2023-02-28T23:45:21;42.30;;;16.48;;
27863;SDS011;15980;51.092;13.916;2023-02-28T23:55:21;38.00;;;14.95;;
